Time;durP1;ratioP1;P1;durP2;ratioP2;P2;SDS_P1;SDS_P2;PMS_P1;PMS_P2;Temp;Humidity;BMP_temperature;BMP_pressure;BME280_temperature;BME280_humidity;BME280_pressure;Samples;Min_cycle;Max_cycle;Signal;HPM_P1;HPM_P2
2023/08/12 00:00:33;;;;;;;4.90;3.10;;;;;;;16.15;57.60;97327.04;108533;1270;24372;-78
2023/08/12 00:03:28;;;;;;;4.60;2.60;;;;;;;16.13;57.57;97326.92;108561;1269;22741;-78
2023/08/12 00:06:01;;;;;;;5.10;2.80;;;;;;;16.13;57.68;97326.61;108538;1275;22528;-78
2023/08/12 00:08:32;;;;;;;3.60;2.70;;;;;;;16.09;57.61;97324.80;108386;1269;22517;-78
2023/08/12 00:11:03;;;;;;;4.20;3.40;;;;;;;16.11;57.62;97324.04;108512;1275;22544;-78
2023/08/12 00:13:35;;;;;;;4.60;2.80;;;;;;;16.09;57.60;97319.80;108483;1275;22520;-78
2023/08/12 00:16:08;;;;;;;4.20;2.80;;;;;;;16.04;57.60;97321.46;108482;1275;22538;-78
2023/08/12 00:18:39;;;;;;;3.80;3.00;;;;;;;16.00;57.64;97319.02;108509;1275;22522;-77
2023/08/12 00:21:11;;;;;;;4.20;3.00;;;;;;;15.98;57.73;97316.23;108535;1276;22517;-77
2023/08/12 00:23:47;;;;;;;5.20;3.20;;;;;;;15.96;57.80;97311.14;108513;1269;24022;-78
2023/08/12 00:26:20;;;;;;;4.60;3.00;;;;;;;15.97;57.72;97313.73;108534;1268;22512;-77
2023/08/12 00:28:52;;;;;;;4.80;3.00;;;;;;;15.95;57.72;97313.77;108484;1275;22912;-78
2023/08/12 00:31:25;;;;;;;4.90;2.90;;;;;;;15.93;57.79;97309.66;108558;1275;23866;-78
2023/08/12 00:33:58;;;;;;;4.40;3.10;;;;;;;15.89;57.91;97305.78;108483;1275;24199;-78
2023/08/12 00:36:29;;;;;;;5.20;3.10;;;;;;;15.87;57.89;97309.00;108506;1273;25451;-78
2023/08/12 00:39:03;;;;;;;4.50;3.00;;;;;;;15.84;57.94;97307.23;108503;1269;22534;-78
2023/08/12 00:41:39;;;;;;;5.40;3.40;;;;;;;15.84;57.83;97306.20;108463;1275;22526;-78
2023/08/12 00:44:10;;;;;;;5.10;3.50;;;;;;;15.83;58.05;97303.29;108513;1275;22518;-78
2023/08/12 00:46:43;;;;;;;4.30;3.10;;;;;;;15.80;58.13;97299.92;108493;1275;23525;-78
2023/08/12 00:49:18;;;;;;;4.30;2.90;;;;;;;15.79;58.11;97296.33;108450;1275;22572;-77
2023/08/12 00:51:51;;;;;;;9.00;3.20;;;;;;;15.79;58.05;97295.58;108494;1275;22511;-78
2023/08/12 00:54:24;;;;;;;4.60;2.90;;;;;;;15.79;58.07;97290.77;108512;1272;22517;-77
2023/08/12 00:57:01;;;;;;;4.30;3.10;;;;;;;15.79;58.08;97288.45;108494;1275;22517;-78
2023/08/12 00:59:33;;;;;;;5.60;3.20;;;;;;;15.79;58.07;97284.94;108497;1275;23284;-77
2023/08/12 01:02:05;;;;;;;4.30;3.00;;;;;;;15.76;58.04;97286.94;108451;1275;25328;-77
2023/08/12 01:04:36;;;;;;;4.60;3.30;;;;;;;15.73;58.10;97282.98;108490;1270;23253;-78
2023/08/12 01:07:10;;;;;;;4.10;3.20;;;;;;;15.68;58.10;97282.43;108514;1275;22512;-77
2023/08/12 01:09:42;;;;;;;4.80;2.80;;;;;;;15.67;58.21;97278.71;108476;1276;22614;-77
2023/08/12 01:12:19;;;;;;;4.40;2.90;;;;;;;15.65;58.21;97278.38;108521;1276;22697;-77
2023/08/12 01:15:03;;;;;;;3.30;2.50;;;;;;;15.64;58.27;97278.73;108482;1275;22556;-77
2023/08/12 01:17:42;;;;;;;4.40;2.90;;;;;;;15.62;58.30;97279.65;108468;1275;22525;-77
2023/08/12 01:20:15;;;;;;;4.30;2.80;;;;;;;15.62;58.33;97275.54;108534;1273;22636;-77
2023/08/12 01:22:48;;;;;;;3.90;2.90;;;;;;;15.60;58.37;97277.43;108509;1275;23978;-78
2023/08/12 01:25:21;;;;;;;4.00;3.00;;;;;;;15.57;58.36;97277.45;108584;1276;22514;-78
2023/08/12 01:27:58;;;;;;;4.70;3.20;;;;;;;15.55;58.52;97277.66;108469;1275;24092;-77
2023/08/12 01:30:29;;;;;;;6.60;3.30;;;;;;;15.54;58.60;97275.75;108527;1273;22518;-77
2023/08/12 01:33:08;;;;;;;3.90;3.00;;;;;;;15.52;58.56;97276.02;108528;1275;22649;-77
2023/08/12 01:35:45;;;;;;;4.70;2.80;;;;;;;15.52;58.68;97277.78;108440;1268;22518;-78
2023/08/12 01:38:19;;;;;;;4.60;3.00;;;;;;;15.50;58.68;97272.73;108485;1276;24955;-78
2023/08/12 01:40:55;;;;;;;3.80;2.90;;;;;;;15.50;58.71;97276.00;108561;1253;22649;-78
2023/08/12 01:43:27;;;;;;;4.20;3.10;;;;;;;15.49;58.73;97274.83;108563;1272;22631;-77
2023/08/12 01:46:01;;;;;;;4.70;2.80;;;;;;;15.48;58.84;97278.80;108555;1275;22481;-77
2023/08/12 01:48:32;;;;;;;3.70;2.90;;;;;;;15.45;58.89;97279.14;108552;1275;22538;-77
2023/08/12 01:51:06;;;;;;;4.30;2.70;;;;;;;15.43;58.98;97281.00;108546;1270;22542;-77
2023/08/12 01:53:39;;;;;;;3.70;3.00;;;;;;;15.42;58.96;97281.98;108556;1275;22981;-77
2023/08/12 01:56:12;;;;;;;5.20;3.40;;;;;;;15.42;58.90;97277.92;108533;1274;22526;-77
2023/08/12 01:58:45;;;;;;;3.90;3.00;;;;;;;15.43;59.03;97276.36;108553;1275;25630;-78
2023/08/12 02:01:15;;;;;;;4.60;3.00;;;;;;;15.42;59.04;97282.79;108539;1275;22522;-77
2023/08/12 02:03:49;;;;;;;4.30;2.80;;;;;;;15.39;59.06;97278.61;108568;1275;22517;-77
2023/08/12 02:06:22;;;;;;;5.20;3.40;;;;;;;15.37;59.14;97275.13;108549;1268;24206;-77
2023/08/12 02:08:54;;;;;;;4.70;3.10;;;;;;;15.35;59.28;97277.25;108561;1275;22511;-77
2023/08/12 02:11:30;;;;;;;4.30;3.20;;;;;;;15.27;59.33;97272.23;108556;1275;22534;-77
2023/08/12 02:14:01;;;;;;;4.30;3.40;;;;;;;15.24;59.33;97271.40;108534;1275;22529;-77
2023/08/12 02:16:34;;;;;;;4.30;3.60;;;;;;;15.23;59.44;97272.48;108561;1270;22620;-78
2023/08/12 02:19:05;;;;;;;6.10;3.00;;;;;;;15.22;59.61;97275.91;108600;1271;24193;-77
2023/08/12 02:21:37;;;;;;;4.70;3.20;;;;;;;15.21;59.67;97280.10;108571;1275;22533;-77
2023/08/12 02:24:09;;;;;;;4.90;3.30;;;;;;;15.19;59.72;97283.64;108562;1275;25243;-78
2023/08/12 02:26:43;;;;;;;3.70;2.80;;;;;;;15.18;59.83;97280.91;108541;1275;24273;-77
2023/08/12 02:29:14;;;;;;;4.60;3.20;;;;;;;15.18;59.80;97276.86;108556;1275;22567;-77
2023/08/12 02:31:45;;;;;;;4.00;3.30;;;;;;;15.17;59.87;97278.86;108550;1275;22521;-78
2023/08/12 02:34:25;;;;;;;3.70;2.80;;;;;;;15.15;60.00;97280.87;108540;1275;23985;-77
2023/08/12 02:36:56;;;;;;;4.50;2.70;;;;;;;15.13;59.97;97280.05;108545;1275;22513;-77
2023/08/12 02:39:30;;;;;;;5.40;3.30;;;;;;;15.17;60.00;97276.02;108534;1261;22521;-77
2023/08/12 02:42:01;;;;;;;4.50;3.10;;;;;;;15.19;59.93;97279.25;108578;1276;22521;-77
2023/08/12 02:44:34;;;;;;;4.60;3.00;;;;;;;15.21;59.87;97283.84;108552;1272;22517;-77
2023/08/12 02:47:06;;;;;;;5.90;3.40;;;;;;;15.20;59.86;97282.40;108483;1275;25403;-77
2023/08/12 02:49:39;;;;;;;4.90;3.00;;;;;;;15.19;59.93;97286.84;108491;1275;24274;-77
2023/08/12 02:52:09;;;;;;;3.30;2.70;;;;;;;15.14;59.93;97283.66;108547;1269;24394;-77
2023/08/12 02:54:43;;;;;;;4.60;3.10;;;;;;;15.15;60.17;97287.48;108503;1269;23183;-77
2023/08/12 02:57:15;;;;;;;5.20;3.20;;;;;;;15.14;60.25;97287.08;108513;1275;22531;-77
2023/08/12 02:59:49;;;;;;;4.10;3.50;;;;;;;15.12;60.32;97288.23;108611;1270;22525;-77
2023/08/12 03:02:20;;;;;;;4.90;3.30;;;;;;;15.09;60.26;97288.02;108640;1275;24138;-77
2023/08/12 03:04:54;;;;;;;4.50;2.90;;;;;;;15.07;60.47;97290.45;108610;1275;24467;-77
2023/08/12 03:07:29;;;;;;;3.50;2.80;;;;;;;15.08;60.53;97294.17;108569;1272;22624;-77
2023/08/12 03:10:01;;;;;;;3.70;3.00;;;;;;;15.07;60.59;97297.66;108607;1275;24218;-78
2023/08/12 03:12:32;;;;;;;4.70;3.30;;;;;;;15.03;60.65;97299.52;108688;1275;22526;-77
2023/08/12 03:15:05;;;;;;;3.90;3.20;;;;;;;15.02;60.63;97302.05;108617;1267;25349;-78
2023/08/12 03:17:38;;;;;;;5.40;3.10;;;;;;;15.05;60.75;97307.17;108560;1275;22518;-77
2023/08/12 03:20:13;;;;;;;4.00;3.10;;;;;;;15.06;60.76;97302.53;108620;1275;23470;-77
2023/08/12 03:22:44;;;;;;;5.80;3.20;;;;;;;15.13;60.86;97307.23;108601;1272;22541;-77
2023/08/12 03:25:15;;;;;;;4.60;3.10;;;;;;;15.18;60.77;97305.91;108558;1271;25295;-77
2023/08/12 03:27:51;;;;;;;5.00;3.20;;;;;;;15.22;60.77;97306.42;108574;1272;22515;-77
2023/08/12 03:30:22;;;;;;;3.10;2.70;;;;;;;15.21;60.76;97307.17;108557;1275;23195;-77
2023/08/12 03:32:57;;;;;;;5.30;3.00;;;;;;;15.18;60.77;97311.16;108618;1275;22522;-77
2023/08/12 03:35:29;;;;;;;4.60;3.40;;;;;;;15.13;60.90;97311.19;108599;1269;23021;-77
2023/08/12 03:38:06;;;;;;;4.30;2.70;;;;;;;15.03;61.03;97312.94;108550;1275;22522;-77
2023/08/12 03:40:40;;;;;;;4.30;3.40;;;;;;;14.97;61.33;97313.02;108506;1273;22514;-77
2023/08/12 03:43:12;;;;;;;4.10;2.80;;;;;;;15.02;61.37;97315.35;108539;1276;25370;-77
2023/08/12 03:45:45;;;;;;;6.80;3.30;;;;;;;15.03;61.44;97314.80;108547;1276;22526;-77
2023/08/12 03:48:17;;;;;;;5.10;2.90;;;;;;;15.01;61.42;97310.98;108521;1275;22547;-77
2023/08/12 03:50:50;;;;;;;4.60;3.00;;;;;;;14.99;61.60;97310.97;108549;1275;22501;-77
2023/08/12 03:53:22;;;;;;;3.80;3.10;;;;;;;14.97;61.67;97315.21;108512;1270;22532;-77
2023/08/12 03:55:59;;;;;;;3.50;2.90;;;;;;;14.94;61.65;97312.80;108527;1276;22534;-77
2023/08/12 03:58:32;;;;;;;4.30;3.20;;;;;;;14.89;61.87;97312.11;108530;1273;23236;-77
2023/08/12 04:01:03;;;;;;;4.50;3.20;;;;;;;14.87;62.03;97310.50;108577;1269;22537;-76
2023/08/12 04:03:35;;;;;;;4.10;3.00;;;;;;;14.90;62.23;97312.52;108652;1275;22521;-77
2023/08/12 04:06:07;;;;;;;4.70;3.00;;;;;;;14.92;62.37;97316.20;108652;1276;22511;-76
2023/08/12 04:08:42;;;;;;;4.70;3.00;;;;;;;14.95;62.37;97317.44;108616;1269;25921;-76
2023/08/12 04:11:13;;;;;;;4.50;3.10;;;;;;;14.97;62.50;97317.52;108672;1275;22527;-76
2023/08/12 04:13:44;;;;;;;6.60;3.20;;;;;;;15.02;62.59;97321.65;108683;1275;22531;-76
2023/08/12 04:16:19;;;;;;;4.80;3.40;;;;;;;15.06;62.55;97322.52;108641;1275;25490;-76
2023/08/12 04:18:54;;;;;;;4.20;3.30;;;;;;;15.09;62.48;97315.80;108646;1269;25492;-76
2023/08/12 04:21:28;;;;;;;3.70;2.90;;;;;;;15.15;62.43;97315.27;108566;1276;22548;-76
2023/08/12 04:23:59;;;;;;;4.00;3.10;;;;;;;15.22;62.54;97317.47;108523;1273;25360;-76
2023/08/12 04:26:34;;;;;;;4.70;3.70;;;;;;;15.27;62.45;97315.78;108524;1273;22515;-76
2023/08/12 04:29:06;;;;;;;3.30;3.00;;;;;;;15.29;62.48;97312.96;108559;1275;25316;-76
2023/08/12 04:31:37;;;;;;;5.40;3.60;;;;;;;15.32;62.49;97316.17;108628;1273;24233;-76
2023/08/12 04:34:08;;;;;;;4.40;3.40;;;;;;;15.37;62.55;97322.10;108665;1272;24199;-76
2023/08/12 04:36:42;;;;;;;3.80;3.20;;;;;;;15.43;62.73;97324.08;108646;1275;22525;-76
2023/08/12 04:39:16;;;;;;;3.70;2.90;;;;;;;15.57;62.67;97323.87;108609;1275;22543;-77
2023/08/12 04:41:50;;;;;;;5.40;3.70;;;;;;;15.66;62.42;97324.02;108685;1275;22530;-76
2023/08/12 04:44:22;;;;;;;6.20;3.20;;;;;;;15.96;63.18;97326.13;108665;1276;22530;-77
2023/08/12 04:46:59;;;;;;;5.00;3.30;;;;;;;16.81;63.43;97319.69;108672;1276;23985;-77
2023/08/12 04:49:31;;;;;;;3.70;3.10;;;;;;;17.52;61.85;97318.73;108613;1269;22515;-77
2023/08/12 04:52:03;;;;;;;4.60;3.10;;;;;;;17.98;61.01;97317.49;108663;1276;22524;-77
2023/08/12 04:54:38;;;;;;;4.90;3.60;;;;;;;18.46;60.22;97320.98;108562;1273;22533;-77
2023/08/12 04:57:09;;;;;;;3.70;3.30;;;;;;;18.86;59.40;97318.48;108537;1276;22701;-77
2023/08/12 04:59:42;;;;;;;4.90;3.10;;;;;;;19.27;58.87;97320.95;108474;1270;22582;-77
2023/08/12 05:02:14;;;;;;;3.40;2.90;;;;;;;19.73;58.57;97318.02;108573;1276;22516;-77
2023/08/12 05:04:47;;;;;;;3.90;2.70;;;;;;;20.23;57.66;97325.95;108545;1276;22800;-77
2023/08/12 05:07:18;;;;;;;3.30;3.00;;;;;;;20.53;56.89;97324.90;108557;1276;22525;-77
2023/08/12 05:09:50;;;;;;;4.10;3.20;;;;;;;20.99;56.68;97325.02;108475;1276;22551;-77
2023/08/12 05:12:22;;;;;;;5.20;3.10;;;;;;;21.51;56.09;97325.20;108527;1274;22525;-77
2023/08/12 05:14:55;;;;;;;4.70;2.80;;;;;;;21.81;55.17;97321.30;108570;1275;22547;-77
2023/08/12 05:17:27;;;;;;;4.90;2.60;;;;;;;22.07;54.55;97316.73;108551;1275;22519;-77
2023/08/12 05:19:59;;;;;;;5.50;3.10;;;;;;;22.29;53.91;97315.14;108502;1269;22651;-77
2023/08/12 05:22:30;;;;;;;4.20;2.70;;;;;;;22.37;53.23;97316.41;108512;1274;22560;-78
2023/08/12 05:25:01;;;;;;;6.70;3.40;;;;;;;22.57;52.89;97317.42;108509;1275;22596;-78
2023/08/12 05:27:36;;;;;;;4.80;3.10;;;;;;;22.71;52.47;97316.16;108550;1276;25407;-78
2023/08/12 05:30:10;;;;;;;3.60;2.80;;;;;;;22.81;52.16;97310.08;108582;1276;22519;-77
2023/08/12 05:32:43;;;;;;;3.90;2.40;;;;;;;22.83;51.28;97308.96;108572;1276;22521;-77
2023/08/12 05:35:14;;;;;;;4.50;3.30;;;;;;;22.74;51.33;97310.85;108517;1269;22547;-77
2023/08/12 05:37:45;;;;;;;6.10;2.90;;;;;;;22.93;51.11;97311.08;108487;1275;25389;-77
2023/08/12 05:40:18;;;;;;;3.60;2.80;;;;;;;23.10;51.03;97309.32;108567;1276;22515;-77
2023/08/12 05:42:50;;;;;;;4.30;2.80;;;;;;;23.14;50.35;97313.37;108587;1275;24613;-78
2023/08/12 05:45:22;;;;;;;2.40;2.20;;;;;;;22.91;50.14;97313.78;108572;1275;22617;-78
2023/08/12 05:47:55;;;;;;;4.20;3.10;;;;;;;22.89;49.76;97314.09;108581;1267;22545;-77
2023/08/12 05:50:29;;;;;;;4.00;2.70;;;;;;;22.66;49.73;97314.23;108620;1273;22569;-77
2023/08/12 05:53:00;;;;;;;4.30;3.00;;;;;;;22.50;49.67;97310.95;108636;1272;22538;-77
2023/08/12 05:55:31;;;;;;;3.60;2.70;;;;;;;22.40;49.82;97308.78;108623;1275;22535;-77
2023/08/12 05:58:02;;;;;;;3.40;2.60;;;;;;;22.24;49.45;97307.95;108639;1275;22512;-77
2023/08/12 06:00:33;;;;;;;4.60;2.40;;;;;;;21.89;49.13;97301.98;108662;1274;22555;-79
2023/08/12 06:03:09;;;;;;;3.30;3.00;;;;;;;21.52;49.29;97302.58;108552;1272;22704;-79
2023/08/12 06:05:40;;;;;;;3.80;2.90;;;;;;;21.50;50.54;97303.10;108386;1275;23135;-79
2023/08/12 06:08:15;;;;;;;5.30;2.90;;;;;;;21.92;50.75;97302.48;108399;1275;22535;-79
2023/08/12 06:10:48;;;;;;;4.10;2.90;;;;;;;22.04;49.80;97302.27;108454;1275;24239;-79
2023/08/12 06:13:20;;;;;;;5.00;2.70;;;;;;;21.76;49.71;97303.08;108466;1271;22573;-79
2023/08/12 06:15:54;;;;;;;3.80;2.80;;;;;;;21.55;50.21;97304.68;108515;1272;22525;-79
2023/08/12 06:18:35;;;;;;;3.10;2.80;;;;;;;21.50;50.68;97304.91;108568;1272;22584;-79
2023/08/12 06:21:09;;;;;;;4.50;2.90;;;;;;;21.78;51.19;97300.16;108671;1272;25301;-79
2023/08/12 06:23:50;;;;;;;3.60;2.90;;;;;;;22.04;51.12;97305.38;108632;1273;22548;-78
2023/08/12 06:26:27;;;;;;;3.80;2.80;;;;;;;22.25;51.22;97306.14;108608;1275;25410;-77
2023/08/12 06:29:00;;;;;;;3.20;2.90;;;;;;;22.30;50.73;97309.93;108604;1275;22526;-78
2023/08/12 06:31:32;;;;;;;3.60;3.00;;;;;;;22.22;50.95;97305.43;108671;1275;22600;-78
2023/08/12 06:34:08;;;;;;;4.00;2.80;;;;;;;22.15;51.04;97306.38;108766;1275;22553;-78
2023/08/12 06:36:44;;;;;;;3.40;2.60;;;;;;;22.20;50.99;97303.67;108770;1275;22561;-78
2023/08/12 06:39:19;;;;;;;3.30;2.70;;;;;;;22.19;51.11;97305.66;108678;1275;22525;-78
2023/08/12 06:41:55;;;;;;;4.50;3.20;;;;;;;22.27;51.12;97305.20;108694;1275;26388;-78
2023/08/12 06:44:27;;;;;;;5.20;3.10;;;;;;;22.29;51.20;97303.33;108550;1273;22524;-78
2023/08/12 06:47:03;;;;;;;5.30;3.00;;;;;;;22.31;50.85;97302.70;108614;1268;22548;-78
2023/08/12 06:49:34;;;;;;;4.40;3.00;;;;;;;22.19;50.92;97303.69;108795;1273;25342;-78
2023/08/12 06:52:10;;;;;;;4.60;3.00;;;;;;;22.20;51.17;97300.43;108607;1275;22529;-78
2023/08/12 06:54:45;;;;;;;5.20;3.10;;;;;;;22.25;50.88;97295.36;108785;1272;22598;-79
2023/08/12 06:57:18;;;;;;;4.10;2.90;;;;;;;22.40;51.24;97299.23;108718;1275;22531;-79
2023/08/12 06:59:52;;;;;;;3.60;3.00;;;;;;;22.45;51.03;97300.23;108576;1275;25446;-80
2023/08/12 07:02:30;;;;;;;4.20;3.00;;;;;;;22.44;51.07;97302.27;108607;1269;24260;-79
2023/08/12 07:05:10;;;;;;;5.00;2.70;;;;;;;22.30;51.22;97299.50;108728;1273;22525;-79
2023/08/12 07:07:41;;;;;;;3.80;3.10;;;;;;;22.39;51.60;97297.27;108828;1275;22550;-80
2023/08/12 07:10:13;;;;;;;4.50;2.80;;;;;;;22.60;51.59;97301.13;108750;1273;22527;-79
2023/08/12 07:12:49;;;;;;;3.30;2.90;;;;;;;22.55;50.83;97303.62;108597;1275;22545;-79
2023/08/12 07:15:21;;;;;;;4.70;3.20;;;;;;;22.55;51.02;97304.16;108865;1272;22528;-79
2023/08/12 07:17:55;;;;;;;3.30;2.60;;;;;;;22.64;51.03;97301.96;108755;1273;22514;-79
2023/08/12 07:20:30;;;;;;;4.50;2.70;;;;;;;22.89;50.89;97300.67;108764;1275;22533;-79
2023/08/12 07:23:02;;;;;;;4.10;2.70;;;;;;;23.04;50.92;97299.41;108566;1273;22630;-79
2023/08/12 07:25:36;;;;;;;5.30;2.70;;;;;;;23.11;50.99;97299.33;108631;1269;22539;-79
2023/08/12 07:28:10;;;;;;;4.70;3.20;;;;;;;23.38;50.98;97299.36;108536;1270;22987;-79
2023/08/12 07:30:41;;;;;;;4.00;2.90;;;;;;;23.50;50.57;97300.10;108686;1275;23798;-79
2023/08/12 07:33:12;;;;;;;3.70;2.80;;;;;;;23.59;50.40;97299.74;108648;1273;24222;-78
2023/08/12 07:35:45;;;;;;;3.30;2.70;;;;;;;23.70;50.07;97297.17;108641;1275;22581;-78
2023/08/12 07:38:28;;;;;;;2.70;2.50;;;;;;;23.71;50.00;97298.59;108669;1267;36785;-79
2023/08/12 07:41:11;;;;;;;3.50;2.80;;;;;;;23.84;50.04;97296.93;109066;1270;22544;-80
2023/08/12 07:43:50;;;;;;;4.40;2.90;;;;;;;23.96;49.86;97301.05;109133;1269;22514;-82
2023/08/12 07:46:38;;;;;;;6.10;2.70;;;;;;;23.95;49.66;97296.35;109039;1267;22554;-80
2023/08/12 07:49:37;;;;;;;3.50;3.10;;;;;;;23.92;49.49;97292.35;107621;1274;1840022;-81
2023/08/12 07:52:28;;;;;;;3.90;2.60;;;;;;;24.14;49.46;97293.44;109045;1269;22523;-81
2023/08/12 07:55:18;;;;;;;5.00;2.90;;;;;;;24.32;49.20;97293.23;109019;1270;22508;-80
2023/08/12 07:57:57;;;;;;;3.30;2.30;;;;;;;24.48;49.11;97291.49;109207;1267;24262;-79
2023/08/12 08:00:34;;;;;;;3.50;2.70;;;;;;;24.57;48.77;97291.60;109102;1267;25319;-79
2023/08/12 08:03:26;;;;;;;3.60;2.70;;;;;;;24.66;48.99;97288.65;108257;1272;23334;-79
2023/08/12 08:06:04;;;;;;;4.80;2.90;;;;;;;24.81;48.79;97283.25;108700;1261;22544;-79
2023/08/12 08:08:41;;;;;;;3.90;2.80;;;;;;;24.86;48.83;97285.52;108666;1267;23295;-79
2023/08/12 08:11:15;;;;;;;4.50;2.90;;;;;;;24.98;48.83;97283.98;108761;1274;23265;-79
2023/08/12 08:13:47;;;;;;;3.80;2.80;;;;;;;24.82;48.24;97279.93;108664;1267;24307;-79
2023/08/12 08:16:18;;;;;;;4.60;3.00;;;;;;;24.68;48.26;97279.10;108642;1274;25424;-79
2023/08/12 08:18:52;;;;;;;4.60;3.20;;;;;;;24.76;48.36;97278.11;108628;1275;22521;-78
2023/08/12 08:21:27;;;;;;;4.90;3.10;;;;;;;24.86;48.09;97272.65;108655;1268;22532;-77
2023/08/12 08:24:00;;;;;;;3.60;2.60;;;;;;;25.04;47.98;97274.61;108713;1267;22544;-77
2023/08/12 08:26:33;;;;;;;3.80;2.70;;;;;;;25.03;47.33;97276.45;108682;1274;22544;-77
2023/08/12 08:29:05;;;;;;;3.70;2.80;;;;;;;24.91;47.50;97274.62;108618;1270;22564;-78
2023/08/12 08:31:38;;;;;;;4.90;3.20;;;;;;;24.97;47.63;97272.27;108626;1274;22535;-78
2023/08/12 08:34:11;;;;;;;3.80;2.70;;;;;;;25.09;47.78;97270.92;108680;1274;22509;-77
2023/08/12 08:36:42;;;;;;;6.60;2.60;;;;;;;25.21;47.48;97269.14;108673;1274;22517;-77
2023/08/12 08:39:15;;;;;;;5.20;2.40;;;;;;;25.22;47.18;97274.05;108568;1274;22624;-78
2023/08/12 08:41:59;;;;;;;2.00;1.60;;;;;;;25.12;46.41;97274.70;108668;1274;22529;-78
2023/08/12 08:44:38;;;;;;;2.90;2.30;;;;;;;24.99;46.36;97273.10;108652;1274;22516;-77
2023/08/12 08:47:17;;;;;;;3.10;2.20;;;;;;;24.76;45.96;97269.81;108607;1274;25408;-78
2023/08/12 08:49:53;;;;;;;3.70;2.20;;;;;;;24.79;46.21;97267.32;108582;1275;22523;-78
2023/08/12 08:52:29;;;;;;;3.70;2.10;;;;;;;24.99;46.21;97265.41;108296;1267;403363;-76
2023/08/12 08:55:06;;;;;;;4.00;2.50;;;;;;;25.12;46.64;97260.22;108618;1269;25422;-77
2023/08/12 08:57:38;;;;;;;3.40;2.30;;;;;;;25.23;46.26;97257.71;108600;1275;25451;-78
2023/08/12 09:00:16;;;;;;;3.40;2.00;;;;;;;25.24;46.00;97260.52;108481;1275;22525;-77
2023/08/12 09:02:52;;;;;;;3.00;2.30;;;;;;;25.12;46.25;97257.57;108726;1270;25372;-78
2023/08/12 09:05:28;;;;;;;5.70;2.00;;;;;;;25.12;46.03;97256.72;108557;1267;22535;-78
2023/08/12 09:08:02;;;;;;;4.30;2.60;;;;;;;25.20;46.18;97256.73;108578;1275;22526;-79
2023/08/12 09:10:36;;;;;;;3.90;2.40;;;;;;;25.33;46.63;97249.84;108743;1275;22675;-79
2023/08/12 09:13:08;;;;;;;3.50;2.10;;;;;;;25.40;46.76;97251.08;108750;1275;22529;-81
2023/08/12 09:15:40;;;;;;;5.90;2.40;;;;;;;25.27;46.39;97249.26;108622;1275;22533;-81
2023/08/12 09:18:12;;;;;;;5.60;2.40;;;;;;;24.83;45.77;97249.26;108578;1272;23304;-81
2023/08/12 09:20:45;;;;;;;4.20;2.50;;;;;;;24.73;46.45;97244.64;108595;1275;22529;-80
2023/08/12 09:23:19;;;;;;;4.30;2.60;;;;;;;24.84;46.45;97239.52;108625;1275;25290;-80
2023/08/12 09:25:50;;;;;;;3.20;2.20;;;;;;;25.01;46.72;97238.19;108604;1275;22565;-81
2023/08/12 09:28:22;;;;;;;3.70;2.30;;;;;;;25.03;46.20;97236.45;108508;1267;22540;-80
2023/08/12 09:30:59;;;;;;;3.80;2.30;;;;;;;24.60;46.37;97236.84;108560;1272;22517;-78
2023/08/12 09:33:33;;;;;;;2.60;2.10;;;;;;;24.47;47.48;97235.90;108598;1275;22654;-80
2023/08/12 09:36:05;;;;;;;3.00;2.30;;;;;;;24.29;46.71;97234.11;108575;1275;22998;-80
2023/08/12 09:38:36;;;;;;;4.20;2.30;;;;;;;23.96;47.05;97228.13;108654;1273;22754;-80
2023/08/12 09:41:07;;;;;;;3.80;2.70;;;;;;;23.81;46.99;97226.36;108658;1275;22530;-80
2023/08/12 09:43:44;;;;;;;3.60;2.60;;;;;;;23.80;47.81;97232.13;108617;1275;22557;-81
2023/08/12 09:46:18;;;;;;;2.50;2.20;;;;;;;23.90;47.60;97232.14;108681;1273;22590;-80
2023/08/12 09:48:53;;;;;;;3.10;2.00;;;;;;;23.83;47.36;97233.21;108616;1275;22521;-80
2023/08/12 09:51:25;;;;;;;2.80;2.00;;;;;;;23.58;47.05;97234.21;108576;1267;24232;-80
2023/08/12 09:54:03;;;;;;;3.00;2.00;;;;;;;23.46;47.20;97230.46;108597;1275;22526;-80
2023/08/12 09:56:40;;;;;;;2.60;2.00;;;;;;;23.38;47.34;97232.89;108599;1275;22516;-80
2023/08/12 09:59:19;;;;;;;5.00;2.50;;;;;;;23.36;47.24;97226.66;108601;1272;23316;-80
2023/08/12 10:01:51;;;;;;;3.60;2.40;;;;;;;23.34;47.60;97228.45;108628;1273;22558;-80
2023/08/12 10:04:28;;;;;;;3.70;2.20;;;;;;;23.39;47.87;97224.25;108629;1275;25409;-81
2023/08/12 10:07:04;;;;;;;5.80;2.80;;;;;;;23.49;48.16;97223.29;108608;1267;22534;-78
2023/08/12 10:09:37;;;;;;;3.40;2.00;;;;;;;23.49;48.16;97225.05;108558;1275;22533;-79
2023/08/12 10:12:12;;;;;;;3.10;2.00;;;;;;;23.52;48.14;97224.45;108480;1267;22560;-78
2023/08/12 10:14:45;;;;;;;3.90;2.20;;;;;;;23.55;48.22;97219.27;108671;1271;22567;-78
2023/08/12 10:17:17;;;;;;;3.20;2.30;;;;;;;23.61;48.54;97215.02;108633;1275;22580;-78
2023/08/12 10:19:49;;;;;;;5.90;2.70;;;;;;;23.55;48.07;97217.36;108546;1267;22540;-79
2023/08/12 10:22:21;;;;;;;4.70;2.50;;;;;;;23.59;48.91;97214.81;108527;1269;22513;-79
2023/08/12 10:24:57;;;;;;;4.60;2.30;;;;;;;23.68;48.42;97212.98;108552;1267;22521;-78
2023/08/12 10:27:31;;;;;;;2.90;2.50;;;;;;;23.75;48.59;97211.83;108650;1267;22539;-74
2023/08/12 10:30:07;;;;;;;3.60;2.40;;;;;;;23.66;48.50;97211.91;108580;1273;22709;-75
2023/08/12 10:32:40;;;;;;;5.20;2.60;;;;;;;23.70;48.62;97207.45;108657;1275;22589;-76
2023/08/12 10:35:12;;;;;;;2.90;2.30;;;;;;;23.77;49.07;97206.00;108625;1275;25444;-74
2023/08/12 10:37:51;;;;;;;2.90;2.40;;;;;;;23.78;48.72;97205.15;108559;1270;22528;-75
2023/08/12 10:40:29;;;;;;;4.10;2.60;;;;;;;23.76;48.74;97198.84;108669;1274;22530;-75
2023/08/12 10:43:01;;;;;;;4.70;2.70;;;;;;;23.79;49.17;97197.61;108642;1266;22520;-77
2023/08/12 10:45:51;;;;;;;4.00;2.90;;;;;;;23.84;49.15;97195.52;108666;1267;22527;-76
2023/08/12 10:48:33;;;;;;;3.20;2.50;;;;;;;23.88;49.03;97190.70;108458;1274;25251;-76
2023/08/12 10:51:04;;;;;;;3.60;2.60;;;;;;;23.89;49.44;97189.50;108418;1261;24373;-75
2023/08/12 10:53:39;;;;;;;4.00;2.70;;;;;;;23.85;49.12;97188.92;108563;1270;22549;-76
2023/08/12 10:56:18;;;;;;;3.90;2.50;;;;;;;23.88;49.79;97186.09;108642;1274;22520;-77
2023/08/12 10:58:52;;;;;;;3.60;2.30;;;;;;;24.03;49.60;97188.52;108596;1270;22548;-75
2023/08/12 11:01:26;;;;;;;4.40;2.80;;;;;;;23.97;49.05;97191.24;108578;1273;22527;-76
2023/08/12 11:03:59;;;;;;;2.70;2.00;;;;;;;23.87;49.36;97187.90;108673;1274;23969;-76
2023/08/12 11:06:33;;;;;;;3.90;3.00;;;;;;;23.89;49.57;97181.85;108703;1274;22679;-77
2023/08/12 11:09:10;;;;;;;2.90;2.60;;;;;;;23.96;49.41;97177.14;108661;1274;22522;-77
2023/08/12 11:11:43;;;;;;;3.60;2.70;;;;;;;24.03;49.66;97171.64;108650;1274;22635;-77
2023/08/12 11:14:17;;;;;;;4.70;2.80;;;;;;;24.09;49.81;97172.02;108670;1274;22552;-76
2023/08/12 11:16:50;;;;;;;5.10;3.10;;;;;;;24.11;49.74;97168.73;108639;1274;22588;-77
2023/08/12 11:19:25;;;;;;;4.40;2.80;;;;;;;24.20;49.92;97168.31;108646;1270;22518;-76
2023/08/12 11:21:56;;;;;;;5.10;2.70;;;;;;;24.24;49.73;97160.99;108681;1274;22561;-75
2023/08/12 11:24:31;;;;;;;5.20;2.80;;;;;;;24.17;49.13;97162.60;108652;1267;24136;-76
2023/08/12 11:27:05;;;;;;;3.60;3.10;;;;;;;24.20;49.56;97162.05;108597;1267;22533;-76
2023/08/12 11:29:38;;;;;;;2.60;2.40;;;;;;;24.33;49.88;97160.75;108535;1267;22605;-75
2023/08/12 11:32:19;;;;;;;3.80;2.30;;;;;;;24.42;49.69;97157.36;108476;1267;22535;-76
2023/08/12 11:35:01;;;;;;;3.00;2.30;;;;;;;24.46;49.88;97151.02;109006;1267;22583;-76
2023/08/12 11:37:38;;;;;;;2.80;1.90;;;;;;;24.49;49.91;97152.02;108422;1274;26506;-76
2023/08/12 11:40:15;;;;;;;3.70;2.30;;;;;;;24.49;49.21;97150.77;108506;1275;23409;-76
2023/08/12 11:42:47;;;;;;;4.30;2.40;;;;;;;24.41;48.98;97147.60;108627;1269;22540;-75
2023/08/12 11:45:20;;;;;;;2.90;2.30;;;;;;;24.40;49.02;97146.86;108539;1272;22517;-75
2023/08/12 11:47:59;;;;;;;3.50;2.50;;;;;;;24.45;49.71;97148.22;108498;1267;24246;-76
2023/08/12 11:50:30;;;;;;;4.70;2.60;;;;;;;24.53;49.49;97140.10;108643;1275;22537;-75
2023/08/12 11:53:03;;;;;;;3.90;2.20;;;;;;;24.52;49.14;97140.39;108642;1275;25233;-76
2023/08/12 11:55:37;;;;;;;3.70;2.40;;;;;;;24.51;49.15;97138.52;108595;1275;22548;-75